Terminal Aerodrome Forecast
Issued by NWS Jackson, MS

Home | Current Version | Previous Version | Text Only | Print | Product List | Glossary On
Versions: 1 2 3 4 5 6 7 8 9 10 11 12
000
FTUS44 KJAN 251125
TAFGLH
TAF
KGLH 251125Z 2512/2612 16014G24KT P6SM VCSH BKN050 OVC090
     FM251500 19016G27KT P6SM VCTS BKN025CB BKN250
     FM251700 20017G28KT P6SM VCTS SCT025 BKN060CB OVC250
     FM251900 21015G27KT P6SM FEW050 SCT250
     FM260100 23006KT P6SM FEW250=

USA.gov is the U.S. government's official web portal to all federal, state and local government web resources and services.